createdAt,value
2023-05-21T00:01:23.878Z,4.77
2023-05-21T00:03:53.993Z,5.33
2023-05-21T00:06:23.230Z,4.97
2023-05-21T00:08:53.367Z,5.00
2023-05-21T00:11:24.136Z,4.87
2023-05-21T00:13:55.023Z,4.70
2023-05-21T00:16:26.005Z,4.67
2023-05-21T00:18:54.704Z,4.70
2023-05-21T00:21:26.288Z,4.30
2023-05-21T00:23:56.402Z,4.33
2023-05-21T00:26:26.576Z,5.63
2023-05-21T00:28:53.507Z,5.67
2023-05-21T00:31:20.669Z,5.57
2023-05-21T00:33:47.669Z,5.47
2023-05-21T00:36:14.963Z,5.83
2023-05-21T00:38:46.391Z,5.60
2023-05-21T00:41:13.789Z,5.20
2023-05-21T00:43:40.780Z,5.13
2023-05-21T00:46:16.533Z,5.80
2023-05-21T00:48:50.389Z,5.30
2023-05-21T00:51:18.789Z,5.30
2023-05-21T00:53:53.815Z,5.37
2023-05-21T00:56:23.566Z,4.77
2023-05-21T00:58:57.164Z,5.23
2023-05-21T01:01:27.563Z,4.97
2023-05-21T01:03:57.861Z,4.67
2023-05-21T01:06:24.965Z,4.73
2023-05-21T01:08:52.018Z,4.60
2023-05-21T01:11:19.837Z,4.60
2023-05-21T01:13:48.082Z,4.70
2023-05-21T01:16:15.266Z,4.47
2023-05-21T01:18:43.553Z,4.40
2023-05-21T01:21:11.094Z,4.60
2023-05-21T01:23:38.117Z,4.50
2023-05-21T01:26:05.085Z,4.80
2023-05-21T01:28:42.358Z,4.53
2023-05-21T01:31:26.710Z,4.97
2023-05-21T01:33:56.370Z,5.10
2023-05-21T01:36:32.871Z,5.33
2023-05-21T01:39:12.368Z,5.63
2023-05-21T01:41:44.056Z,5.00
2023-05-21T01:44:12.114Z,6.00
2023-05-21T01:46:39.906Z,5.67
2023-05-21T01:49:08.157Z,5.90
2023-05-21T01:51:36.251Z,5.60
2023-05-21T01:54:09.042Z,4.83
2023-05-21T01:56:37.111Z,5.70
2023-05-21T01:59:04.134Z,6.30
2023-05-21T02:01:38.345Z,5.53
2023-05-21T02:04:26.484Z,5.90
2023-05-21T02:06:54.897Z,5.20
2023-05-21T02:09:21.882Z,5.80
2023-05-21T02:11:48.780Z,5.80
2023-05-21T02:14:16.851Z,5.90
2023-05-21T02:16:43.936Z,5.63
2023-05-21T02:19:11.249Z,6.30
2023-05-21T02:21:38.348Z,5.60
2023-05-21T02:24:05.807Z,5.50
2023-05-21T02:26:32.764Z,5.57
2023-05-21T02:29:06.770Z,6.00
2023-05-21T02:31:33.668Z,5.40
2023-05-21T02:34:08.149Z,5.60
2023-05-21T02:36:36.083Z,6.33
2023-05-21T02:39:03.188Z,5.97
2023-05-21T02:41:33.364Z,6.20
2023-05-21T02:44:00.370Z,6.03
2023-05-21T02:46:30.499Z,6.63
2023-05-21T02:48:57.593Z,6.17
2023-05-21T02:51:31.561Z,6.27
2023-05-21T02:53:58.631Z,6.30
2023-05-21T02:56:26.131Z,6.33
2023-05-21T02:58:53.457Z,6.63
2023-05-21T03:01:20.839Z,7.17
2023-05-21T03:03:47.809Z,6.77
2023-05-21T03:06:16.341Z,6.60
2023-05-21T03:08:43.356Z,6.73
2023-05-21T03:11:10.612Z,6.80
2023-05-21T03:13:37.557Z,6.83
2023-05-21T03:16:05.352Z,6.80
2023-05-21T03:18:32.336Z,6.70
2023-05-21T03:20:59.368Z,7.20
2023-05-21T03:23:27.209Z,6.53
2023-05-21T03:25:54.182Z,6.63
2023-05-21T03:28:21.224Z,6.90
2023-05-21T03:30:49.844Z,6.87
2023-05-21T03:33:16.986Z,6.87
2023-05-21T03:35:44.006Z,7.20
2023-05-21T03:38:11.056Z,7.83
2023-05-21T03:40:37.976Z,7.50
2023-05-21T03:43:04.879Z,8.07
2023-05-21T03:45:31.853Z,7.80
2023-05-21T03:47:58.902Z,8.53
2023-05-21T03:50:25.936Z,7.67
2023-05-21T03:52:52.880Z,7.97
2023-05-21T03:55:19.818Z,7.90
2023-05-21T03:57:46.854Z,7.70
2023-05-21T04:00:14.097Z,7.57
2023-05-21T04:02:41.173Z,7.97
2023-05-21T04:05:08.770Z,8.10
2023-05-21T04:07:38.355Z,7.77
2023-05-21T04:10:06.665Z,8.23
2023-05-21T04:12:33.716Z,8.37
2023-05-21T04:15:02.561Z,7.47
2023-05-21T04:17:29.561Z,9.00
2023-05-21T04:19:56.553Z,8.87
2023-05-21T04:22:26.685Z,8.50
2023-05-21T04:24:54.623Z,8.17
2023-05-21T04:27:25.616Z,10.10
2023-05-21T04:29:54.808Z,9.80
2023-05-21T04:32:22.167Z,10.00
2023-05-21T04:34:49.134Z,10.30
2023-05-21T04:37:19.455Z,9.67
2023-05-21T04:39:46.895Z,11.27
2023-05-21T04:42:14.180Z,11.70
2023-05-21T04:44:41.539Z,11.80
2023-05-21T04:47:08.569Z,11.47
2023-05-21T04:49:35.609Z,11.97
2023-05-21T04:52:02.868Z,11.07
2023-05-21T04:54:29.929Z,10.63
2023-05-21T04:56:58.137Z,10.83
2023-05-21T04:59:25.147Z,11.80
2023-05-21T05:01:52.662Z,12.87
2023-05-21T05:04:19.645Z,12.23
2023-05-21T05:06:47.304Z,12.47
2023-05-21T05:09:14.333Z,13.03
2023-05-21T05:11:41.268Z,13.17
2023-05-21T05:14:08.295Z,12.67
2023-05-21T05:16:35.681Z,12.40
2023-05-21T05:19:03.171Z,12.57
2023-05-21T05:21:30.702Z,12.57
2023-05-21T05:23:57.757Z,12.10
2023-05-21T05:26:26.223Z,12.43
2023-05-21T05:28:53.304Z,12.90
2023-05-21T05:31:21.086Z,11.97
2023-05-21T05:33:48.984Z,12.17
2023-05-21T05:36:16.530Z,12.33
2023-05-21T05:38:43.445Z,11.77
2023-05-21T05:41:10.348Z,11.53
2023-05-21T05:43:37.388Z,11.17
2023-05-21T05:46:04.555Z,11.47
2023-05-21T05:48:31.643Z,10.80
2023-05-21T05:50:58.716Z,11.27
2023-05-21T05:53:25.841Z,11.48
2023-05-21T05:55:52.851Z,10.87
2023-05-21T05:58:19.845Z,12.02
2023-05-21T06:00:46.840Z,10.90
2023-05-21T06:03:14.091Z,11.40
2023-05-21T06:05:41.278Z,10.82
2023-05-21T06:08:08.208Z,12.15
2023-05-21T06:10:35.149Z,11.75
2023-05-21T06:13:02.116Z,12.18
2023-05-21T06:15:29.067Z,12.27
2023-05-21T06:17:56.053Z,12.82
2023-05-21T06:20:23.077Z,12.52
2023-05-21T06:22:49.988Z,12.35
2023-05-21T06:25:18.299Z,12.38
2023-05-21T06:27:45.332Z,12.60
2023-05-21T06:30:12.430Z,13.15
2023-05-21T06:32:39.404Z,12.35
2023-05-21T06:35:06.975Z,11.93
2023-05-21T06:37:33.968Z,13.63
2023-05-21T06:40:01.570Z,12.93
2023-05-21T06:42:28.565Z,12.95
2023-05-21T06:44:55.529Z,13.15
2023-05-21T06:47:22.698Z,12.85
2023-05-21T06:49:49.713Z,12.38
2023-05-21T06:52:16.664Z,11.43
2023-05-21T06:54:43.672Z,11.98
2023-05-21T06:57:10.718Z,12.73
2023-05-21T06:59:37.682Z,11.68
2023-05-21T07:02:04.888Z,11.13
2023-05-21T07:04:32.117Z,10.38
2023-05-21T07:06:59.020Z,10.15
2023-05-21T07:09:26.046Z,10.85
2023-05-21T07:11:53.411Z,10.45
2023-05-21T07:14:20.429Z,10.48
2023-05-21T07:16:47.485Z,9.80
2023-05-21T07:19:15.846Z,10.00
2023-05-21T07:21:42.798Z,10.45
2023-05-21T07:24:09.731Z,9.75
2023-05-21T07:26:36.700Z,10.05
2023-05-21T07:29:03.747Z,10.63
2023-05-21T07:31:30.821Z,10.02
2023-05-21T07:33:57.817Z,9.18
2023-05-21T07:36:27.234Z,10.32
2023-05-21T07:38:54.772Z,10.15
2023-05-21T07:41:22.113Z,10.35
2023-05-21T07:43:49.366Z,9.90
2023-05-21T07:46:16.332Z,9.82
2023-05-21T07:48:43.692Z,10.57
2023-05-21T07:51:11.614Z,10.40
2023-05-21T07:53:38.549Z,11.00
2023-05-21T07:56:06.655Z,10.85
2023-05-21T07:58:35.158Z,9.43
2023-05-21T08:01:02.881Z,9.05
2023-05-21T08:03:33.011Z,9.82
2023-05-21T08:06:00.052Z,9.65
2023-05-21T08:08:27.040Z,8.93
2023-05-21T08:10:54.017Z,9.30
2023-05-21T08:13:21.172Z,9.40
2023-05-21T08:15:52.084Z,8.65
2023-05-21T08:18:20.059Z,9.00
2023-05-21T08:20:48.300Z,8.27
2023-05-21T08:23:15.276Z,9.25
2023-05-21T08:25:42.459Z,8.75
2023-05-21T08:28:09.384Z,9.40
2023-05-21T08:30:36.633Z,9.73
2023-05-21T08:33:03.783Z,9.52
2023-05-21T08:35:30.793Z,9.25
2023-05-21T08:37:58.803Z,10.68
2023-05-21T08:40:25.839Z,10.38
2023-05-21T08:42:52.992Z,10.27
2023-05-21T08:45:24.054Z,9.73
2023-05-21T08:47:58.693Z,10.20
2023-05-21T08:50:28.284Z,9.32
2023-05-21T08:52:55.588Z,9.27
2023-05-21T08:55:23.665Z,8.98
2023-05-21T08:57:54.020Z,9.07
2023-05-21T09:00:21.497Z,8.48
2023-05-21T09:02:48.733Z,9.25
2023-05-21T09:05:16.744Z,10.27
2023-05-21T09:08:02.674Z,9.88
2023-05-21T09:10:51.862Z,10.38
2023-05-21T09:13:20.278Z,9.95
2023-05-21T09:15:48.066Z,9.75
2023-05-21T09:18:15.231Z,8.95
2023-05-21T09:20:42.371Z,9.32
2023-05-21T09:23:16.924Z,9.73
2023-05-21T09:25:49.048Z,9.50
2023-05-21T09:28:17.810Z,9.63
2023-05-21T09:30:50.111Z,8.88
2023-05-21T09:33:31.501Z,9.63
2023-05-21T09:35:58.644Z,9.15
2023-05-21T09:38:26.438Z,9.50
2023-05-21T09:40:56.994Z,8.65
2023-05-21T09:43:24.020Z,8.57
2023-05-21T09:45:58.953Z,9.20
2023-05-21T09:48:44.254Z,9.32
2023-05-21T09:51:19.585Z,8.70
2023-05-21T09:53:59.925Z,9.00
2023-05-21T09:56:32.288Z,9.50
2023-05-21T09:59:04.327Z,9.23
2023-05-21T10:01:36.070Z,8.77
2023-05-21T10:04:07.586Z,9.02
2023-05-21T10:06:41.113Z,9.15
2023-05-21T10:09:11.198Z,9.93
2023-05-21T10:11:39.873Z,9.23
2023-05-21T10:14:09.867Z,9.20
2023-05-21T10:16:37.906Z,8.68
2023-05-21T10:19:10.722Z,9.30
2023-05-21T10:21:39.963Z,9.18
2023-05-21T10:24:09.277Z,9.18
2023-05-21T10:26:38.424Z,9.10
2023-05-21T10:29:05.529Z,8.48
2023-05-21T10:31:33.244Z,9.73
2023-05-21T10:34:00.868Z,9.13
2023-05-21T10:36:31.795Z,8.80
2023-05-21T10:39:00.356Z,9.55
2023-05-21T10:41:33.372Z,9.55
2023-05-21T10:44:19.999Z,9.65
2023-05-21T10:47:14.268Z,9.27
2023-05-21T10:50:09.353Z,10.20
2023-05-21T10:53:12.792Z,10.00
2023-05-21T10:56:17.274Z,10.60
2023-05-21T10:59:10.060Z,10.02
2023-05-21T11:01:38.679Z,11.68
2023-05-21T11:04:06.216Z,11.35
2023-05-21T11:06:33.391Z,10.88
2023-05-21T11:09:15.719Z,10.55
2023-05-21T11:11:43.645Z,9.90
2023-05-21T11:14:36.786Z,11.48
2023-05-21T11:17:07.396Z,12.45
2023-05-21T11:19:42.032Z,11.57
2023-05-21T11:22:26.669Z,12.65
2023-05-21T11:24:56.082Z,12.90
2023-05-21T11:27:40.064Z,13.55
2023-05-21T11:30:16.766Z,11.73
2023-05-21T11:33:10.118Z,13.60
2023-05-21T11:36:00.359Z,13.63
2023-05-21T11:38:34.097Z,12.85
2023-05-21T11:41:04.341Z,12.43
2023-05-21T11:43:31.389Z,13.93
2023-05-21T11:45:59.196Z,13.43
2023-05-21T11:48:28.433Z,13.52
2023-05-21T11:50:57.512Z,12.30
2023-05-21T11:53:24.514Z,11.82
2023-05-21T11:55:57.330Z,11.20
2023-05-21T11:58:24.576Z,12.05
2023-05-21T12:00:52.073Z,11.65
2023-05-21T12:03:19.897Z,11.60
2023-05-21T12:05:48.645Z,11.45
2023-05-21T12:08:27.605Z,11.52
2023-05-21T12:11:01.876Z,11.88
2023-05-21T12:13:29.212Z,12.18
2023-05-21T12:15:56.366Z,11.55
2023-05-21T12:18:27.821Z,10.60
2023-05-21T12:20:54.765Z,12.55
2023-05-21T12:23:24.758Z,11.90
2023-05-21T12:25:53.636Z,13.60
2023-05-21T12:28:24.820Z,12.98
2023-05-21T12:30:53.499Z,13.80
2023-05-21T12:33:21.703Z,12.98
2023-05-21T12:35:51.717Z,13.15
2023-05-21T12:38:18.774Z,13.88
2023-05-21T12:40:45.970Z,13.73
2023-05-21T12:43:13.276Z,13.02
2023-05-21T12:45:40.734Z,13.32
2023-05-21T12:48:08.374Z,13.68
2023-05-21T12:50:40.868Z,13.30
2023-05-21T12:53:11.113Z,12.75
2023-05-21T12:55:38.184Z,12.88
2023-05-21T12:58:09.055Z,12.65
2023-05-21T13:00:37.398Z,12.50
2023-05-21T13:03:06.374Z,12.13
2023-05-21T13:05:33.961Z,11.98
2023-05-21T13:08:00.922Z,11.55
2023-05-21T13:10:27.874Z,11.80
2023-05-21T13:12:54.814Z,11.32
2023-05-21T13:15:21.788Z,12.10
2023-05-21T13:17:50.407Z,11.57
2023-05-21T13:20:21.551Z,12.43
2023-05-21T13:22:51.847Z,11.05
2023-05-21T13:25:28.450Z,11.35
2023-05-21T13:27:56.360Z,11.25
2023-05-21T13:30:23.292Z,11.02
2023-05-21T13:32:50.560Z,11.05
2023-05-21T13:35:17.743Z,10.85
2023-05-21T13:37:45.398Z,9.35
2023-05-21T13:40:15.820Z,10.15
2023-05-21T13:42:45.609Z,9.98
2023-05-21T13:45:16.344Z,9.98
2023-05-21T13:47:44.741Z,10.20
2023-05-21T13:50:12.470Z,10.70
2023-05-21T13:52:39.957Z,10.57
2023-05-21T13:55:07.517Z,9.02
2023-05-21T13:57:34.602Z,10.15
2023-05-21T14:00:01.836Z,8.55
2023-05-21T14:02:29.205Z,9.48
2023-05-21T14:04:56.385Z,8.68
2023-05-21T14:07:23.325Z,8.85
2023-05-21T14:09:50.431Z,9.45
2023-05-21T14:12:17.627Z,10.15
2023-05-21T14:14:44.763Z,9.68
2023-05-21T14:17:11.737Z,9.73
2023-05-21T14:19:38.682Z,9.80
2023-05-21T14:22:05.824Z,8.93
2023-05-21T14:24:32.853Z,9.70
2023-05-21T14:26:59.857Z,8.38
2023-05-21T14:29:26.881Z,10.45
2023-05-21T14:31:53.927Z,9.48
2023-05-21T14:34:20.943Z,9.38
2023-05-21T14:36:47.900Z,9.82
2023-05-21T14:39:14.892Z,9.82
2023-05-21T14:41:41.809Z,8.35
2023-05-21T14:44:08.794Z,9.60
2023-05-21T14:46:36.914Z,9.93
2023-05-21T14:49:03.981Z,9.35
2023-05-21T14:51:31.719Z,9.45
2023-05-21T14:53:58.950Z,9.32
2023-05-21T14:56:27.623Z,9.73
2023-05-21T14:58:55.076Z,9.30
2023-05-21T15:01:22.492Z,9.05
2023-05-21T15:03:49.832Z,9.10
2023-05-21T15:06:17.234Z,8.50
2023-05-21T15:08:44.195Z,9.45
2023-05-21T15:11:11.579Z,8.55
2023-05-21T15:13:39.286Z,8.45
2023-05-21T15:16:06.631Z,9.10
2023-05-21T15:18:34.106Z,9.02
2023-05-21T15:21:01.436Z,9.93
2023-05-21T15:23:28.541Z,9.68
2023-05-21T15:25:55.951Z,9.70
2023-05-21T15:28:23.141Z,8.55
2023-05-21T15:30:50.305Z,9.70
2023-05-21T15:33:17.615Z,9.52
2023-05-21T15:35:45.038Z,9.35
2023-05-21T15:38:12.411Z,9.25
2023-05-21T15:40:43.237Z,9.13
2023-05-21T15:43:10.215Z,9.05
2023-05-21T15:45:38.475Z,9.18
2023-05-21T15:48:06.400Z,8.10
2023-05-21T15:50:35.574Z,8.75
2023-05-21T15:53:04.812Z,9.68
2023-05-21T15:55:34.699Z,9.65
2023-05-21T15:58:03.674Z,9.95
2023-05-21T16:00:30.702Z,8.65
2023-05-21T16:02:57.807Z,9.00
2023-05-21T16:05:25.631Z,9.55
2023-05-21T16:07:52.625Z,9.45
2023-05-21T16:10:19.602Z,8.70
2023-05-21T16:12:46.645Z,7.75
2023-05-21T16:15:13.635Z,7.80
2023-05-21T16:17:40.853Z,8.35
2023-05-21T16:20:08.386Z,9.15
2023-05-21T16:22:35.332Z,9.00
2023-05-21T16:25:02.986Z,8.38
2023-05-21T16:27:29.926Z,8.35
2023-05-21T16:29:56.889Z,8.63
2023-05-21T16:32:24.158Z,8.50
2023-05-21T16:34:51.555Z,8.60
2023-05-21T16:37:18.473Z,8.27
2023-05-21T16:39:45.914Z,8.50
2023-05-21T16:42:12.876Z,8.30
2023-05-21T16:44:39.772Z,8.10
2023-05-21T16:47:06.908Z,8.48
2023-05-21T16:49:33.856Z,9.05
2023-05-21T16:52:01.625Z,8.40
2023-05-21T16:54:28.559Z,8.07
2023-05-21T16:56:56.000Z,8.23
2023-05-21T16:59:22.969Z,7.85
2023-05-21T17:01:49.952Z,7.60
2023-05-21T17:04:17.038Z,7.78
2023-05-21T17:06:43.955Z,7.72
2023-05-21T17:09:11.441Z,7.63
2023-05-21T17:11:38.459Z,6.18
2023-05-21T17:14:05.407Z,6.53
2023-05-21T17:16:32.404Z,6.85
2023-05-21T17:18:59.890Z,6.45
2023-05-21T17:21:27.303Z,7.13
2023-05-21T17:23:54.205Z,6.93
2023-05-21T17:26:21.850Z,6.95
2023-05-21T17:28:48.832Z,7.03
2023-05-21T17:31:16.339Z,6.65
2023-05-21T17:33:43.448Z,6.57
2023-05-21T17:36:10.421Z,7.43
2023-05-21T17:38:37.365Z,6.97
2023-05-21T17:41:04.867Z,6.63
2023-05-21T17:43:32.032Z,6.80
2023-05-21T17:45:59.092Z,6.85
2023-05-21T17:48:26.499Z,6.60
2023-05-21T17:50:53.752Z,6.80
2023-05-21T17:53:20.715Z,6.20
2023-05-21T17:55:47.765Z,7.00
2023-05-21T17:58:14.751Z,6.82
2023-05-21T18:00:41.722Z,6.75
2023-05-21T18:03:08.846Z,6.55
2023-05-21T18:05:36.694Z,6.60
2023-05-21T18:08:04.728Z,6.10
2023-05-21T18:10:31.773Z,6.80
2023-05-21T18:12:58.716Z,6.35
2023-05-21T18:15:25.664Z,6.80
2023-05-21T18:17:52.655Z,6.97
2023-05-21T18:20:19.737Z,6.13
2023-05-21T18:22:46.712Z,6.93
2023-05-21T18:25:13.739Z,6.68
2023-05-21T18:27:40.713Z,6.00
2023-05-21T18:30:08.689Z,5.85
2023-05-21T18:32:39.491Z,6.35
2023-05-21T18:35:12.408Z,5.70
2023-05-21T18:37:42.619Z,6.18
2023-05-21T18:40:11.166Z,6.20
2023-05-21T18:42:38.120Z,5.90
2023-05-21T18:45:10.155Z,6.05
2023-05-21T18:47:39.052Z,6.80
2023-05-21T18:50:12.256Z,6.00
2023-05-21T18:52:39.264Z,6.25
2023-05-21T18:55:06.873Z,5.85
2023-05-21T18:57:38.115Z,5.75
2023-05-21T19:00:09.766Z,6.15
2023-05-21T19:02:37.414Z,5.85
2023-05-21T19:05:05.066Z,5.55
2023-05-21T19:07:32.071Z,5.82
2023-05-21T19:10:00.395Z,5.78
2023-05-21T19:12:29.394Z,5.60
2023-05-21T19:14:56.446Z,6.40
2023-05-21T19:17:23.905Z,5.38
2023-05-21T19:19:55.776Z,5.80
2023-05-21T19:22:27.585Z,5.72
2023-05-21T19:24:55.092Z,5.72
2023-05-21T19:27:22.254Z,5.78
2023-05-21T19:29:49.214Z,6.13
2023-05-21T19:32:16.532Z,6.30
2023-05-21T19:34:43.563Z,6.13
2023-05-21T19:37:10.669Z,5.90
2023-05-21T19:39:41.693Z,6.50
2023-05-21T19:42:10.137Z,5.85
2023-05-21T19:44:43.161Z,5.90
2023-05-21T19:47:10.237Z,6.32
2023-05-21T19:49:37.260Z,6.13
2023-05-21T19:52:05.190Z,6.70
2023-05-21T19:54:32.262Z,5.70
2023-05-21T19:56:59.269Z,6.28
2023-05-21T19:59:26.358Z,6.35
2023-05-21T20:01:53.495Z,6.35
2023-05-21T20:04:20.550Z,6.43
2023-05-21T20:06:47.624Z,6.00
2023-05-21T20:09:16.329Z,5.97
2023-05-21T20:11:43.507Z,6.28
2023-05-21T20:14:10.914Z,5.75
2023-05-21T20:16:38.002Z,5.93
2023-05-21T20:19:05.738Z,6.28
2023-05-21T20:21:32.872Z,5.57
2023-05-21T20:23:59.943Z,5.85
2023-05-21T20:26:26.970Z,6.13
2023-05-21T20:28:54.139Z,6.10
2023-05-21T20:31:21.905Z,5.88
2023-05-21T20:33:50.518Z,5.53
2023-05-21T20:36:17.869Z,5.63
2023-05-21T20:38:45.808Z,5.93
2023-05-21T20:41:13.229Z,5.38
2023-05-21T20:43:40.252Z,5.55
2023-05-21T20:46:07.852Z,6.10
2023-05-21T20:48:35.380Z,5.93
2023-05-21T20:51:04.583Z,5.67
2023-05-21T20:53:32.102Z,6.65
2023-05-21T20:56:01.496Z,5.83
2023-05-21T20:58:28.843Z,5.60
2023-05-21T21:00:55.870Z,5.90
2023-05-21T21:03:22.937Z,6.30
2023-05-21T21:05:49.966Z,5.93
2023-05-21T21:08:16.912Z,5.50
2023-05-21T21:10:46.807Z,6.28
2023-05-21T21:13:14.747Z,6.28
2023-05-21T21:15:43.895Z,6.53
2023-05-21T21:18:12.604Z,6.50
2023-05-21T21:20:41.338Z,6.50
2023-05-21T21:23:08.727Z,6.43
2023-05-21T21:25:35.862Z,6.20
2023-05-21T21:28:02.884Z,6.67
2023-05-21T21:30:30.867Z,6.37
2023-05-21T21:32:58.102Z,6.83
2023-05-21T21:35:25.284Z,7.07
2023-05-21T21:37:52.234Z,6.67
2023-05-21T21:40:19.174Z,6.73
2023-05-21T21:42:46.386Z,7.53
2023-05-21T21:45:13.367Z,7.30
2023-05-21T21:47:40.448Z,7.63
2023-05-21T21:50:08.449Z,7.77
2023-05-21T21:52:40.021Z,8.30
2023-05-21T21:55:10.118Z,8.63
2023-05-21T21:57:42.954Z,8.80
2023-05-21T22:00:17.135Z,9.02
2023-05-21T22:02:46.709Z,7.53
2023-05-21T22:05:16.902Z,8.55
2023-05-21T22:07:48.012Z,9.17
2023-05-21T22:10:16.264Z,9.33
2023-05-21T22:12:44.964Z,9.13
2023-05-21T22:15:19.926Z,9.60
2023-05-21T22:17:48.716Z,9.60
2023-05-21T22:20:17.547Z,9.63
2023-05-21T22:22:46.090Z,9.63
2023-05-21T22:25:13.189Z,9.57
2023-05-21T22:27:40.539Z,9.35
2023-05-21T22:30:08.461Z,9.33
2023-05-21T22:32:35.668Z,9.53
2023-05-21T22:35:02.735Z,8.93
2023-05-21T22:37:29.807Z,9.77
2023-05-21T22:39:57.870Z,9.17
2023-05-21T22:42:24.958Z,9.60
2023-05-21T22:44:52.258Z,9.53
2023-05-21T22:47:23.702Z,10.03
2023-05-21T22:49:53.270Z,9.47
2023-05-21T22:52:23.723Z,10.73
2023-05-21T22:54:54.601Z,10.23
2023-05-21T22:57:21.752Z,10.85
2023-05-21T22:59:48.746Z,11.40
2023-05-21T23:02:16.972Z,11.85
2023-05-21T23:04:44.814Z,11.60
2023-05-21T23:07:12.422Z,12.50
2023-05-21T23:09:39.652Z,11.93
2023-05-21T23:12:07.521Z,12.23
2023-05-21T23:14:34.516Z,13.87
2023-05-21T23:17:04.580Z,14.10
2023-05-21T23:19:32.933Z,14.37
2023-05-21T23:22:00.321Z,15.57
2023-05-21T23:24:29.310Z,15.53
2023-05-21T23:27:01.694Z,16.23
2023-05-21T23:29:30.341Z,16.23
2023-05-21T23:31:57.629Z,16.30
2023-05-21T23:34:24.844Z,16.97
2023-05-21T23:36:52.053Z,15.77
2023-05-21T23:39:19.119Z,17.63
2023-05-21T23:41:46.276Z,17.47
2023-05-21T23:44:13.503Z,19.80
2023-05-21T23:46:40.449Z,20.43
2023-05-21T23:49:07.391Z,19.57
2023-05-21T23:51:40.880Z,20.07
2023-05-21T23:54:09.034Z,20.27
2023-05-21T23:56:36.049Z,21.23
2023-05-21T23:59:03.018Z,20.60
